createdAt,value
2019-04-23T00:00:45.544Z,4.70
2019-04-23T00:03:13.962Z,5.27
2019-04-23T00:08:16.335Z,3.80
2019-04-23T00:10:47.111Z,4.70
2019-04-23T00:13:12.854Z,4.90
2019-04-23T00:15:58.684Z,6.40
2019-04-23T00:18:32.279Z,4.93
2019-04-23T00:20:57.675Z,5.47
2019-04-23T00:23:31.974Z,4.37
2019-04-23T00:26:19.875Z,5.93
2019-04-23T00:28:36.037Z,5.93
2019-04-23T00:33:29.589Z,6.00
2019-04-23T00:35:55.045Z,4.63
2019-04-23T00:38:33.528Z,4.10
2019-04-23T00:40:58.122Z,7.27
2019-04-23T00:43:28.889Z,6.53
2019-04-23T00:45:59.732Z,4.10
2019-04-23T00:51:20.293Z,5.70
2019-04-23T00:53:43.928Z,4.03
2019-04-23T00:58:49.529Z,6.53
2019-04-23T01:01:18.570Z,3.73
2019-04-23T01:03:56.383Z,4.70
2019-04-23T01:06:21.104Z,4.53
2019-04-23T01:08:52.323Z,4.30
2019-04-23T01:13:49.276Z,4.33
2019-04-23T01:16:16.439Z,9.33
2019-04-23T01:18:58.394Z,3.83
2019-04-23T01:21:05.767Z,4.30
2019-04-23T01:23:56.555Z,5.30
2019-04-23T01:26:41.856Z,10.23
2019-04-23T01:29:24.307Z,7.83
2019-04-23T01:34:25.689Z,6.67
2019-04-23T01:36:52.605Z,8.77
2019-04-23T01:39:21.095Z,5.73
2019-04-23T01:41:57.312Z,8.13
2019-04-23T01:44:27.453Z,9.40
2019-04-23T01:49:22.127Z,5.63
2019-04-23T01:51:54.605Z,5.10
2019-04-23T01:54:17.782Z,6.63
2019-04-23T01:56:48.679Z,5.50
2019-04-23T02:01:51.893Z,4.87
2019-04-23T02:04:23.003Z,8.77
2019-04-23T02:06:50.519Z,4.90
2019-04-23T02:11:53.600Z,4.17
2019-04-23T02:14:23.062Z,4.90
2019-04-23T02:16:49.940Z,7.33
2019-04-23T02:19:23.635Z,6.00
2019-04-23T02:22:05.176Z,6.90
2019-04-23T02:24:41.354Z,12.47
2019-04-23T02:27:16.882Z,8.07
2019-04-23T02:29:57.425Z,8.67
2019-04-23T02:37:46.015Z,5.13
2019-04-23T02:39:49.522Z,5.47
2019-04-23T02:44:39.511Z,4.93
2019-04-23T02:47:19.303Z,4.17
2019-04-23T02:49:54.818Z,7.17
2019-04-23T02:52:16.048Z,5.53
2019-04-23T02:55:03.897Z,4.70
2019-04-23T02:57:28.467Z,4.47
2019-04-23T03:04:50.548Z,10.00
2019-04-23T03:12:27.079Z,8.30
2019-04-23T03:14:56.085Z,6.83
2019-04-23T03:17:36.246Z,6.63
2019-04-23T03:20:15.427Z,5.93
2019-04-23T03:22:45.909Z,5.20
2019-04-23T03:25:29.912Z,5.10
2019-04-23T03:27:53.599Z,8.33
2019-04-23T03:30:26.419Z,8.70
2019-04-23T03:36:01.838Z,5.33
2019-04-23T03:43:06.651Z,5.07
2019-04-23T03:45:30.245Z,6.73
2019-04-23T03:47:53.916Z,7.57
2019-04-23T03:50:30.048Z,5.53
2019-04-23T03:53:08.813Z,7.60
2019-04-23T03:55:28.308Z,6.47
2019-04-23T03:57:43.258Z,8.13
2019-04-23T04:02:56.364Z,9.87
2019-04-23T04:05:33.812Z,6.33
2019-04-23T04:10:24.308Z,5.67
2019-04-23T04:12:45.703Z,8.87
2019-04-23T04:18:04.433Z,9.50
2019-04-23T04:20:40.504Z,5.33
2019-04-23T04:23:13.149Z,6.17
2019-04-23T04:30:28.020Z,8.40
2019-04-23T04:38:06.168Z,7.73
2019-04-23T04:47:47.974Z,13.37
2019-04-23T04:50:19.403Z,10.13
2019-04-23T04:52:58.327Z,13.30
2019-04-23T04:58:07.092Z,13.73
2019-04-23T05:00:34.704Z,15.43
2019-04-23T05:10:38.390Z,16.30
2019-04-23T05:13:02.763Z,10.03
2019-04-23T05:15:17.269Z,9.37
2019-04-23T05:18:08.358Z,10.27
2019-04-23T05:20:36.616Z,9.37
2019-04-23T05:25:31.399Z,14.80
2019-04-23T05:28:08.009Z,9.77
2019-04-23T05:30:39.822Z,11.37
2019-04-23T05:36:04.346Z,9.20
2019-04-23T05:40:45.341Z,10.37
2019-04-23T05:43:03.494Z,10.93
2019-04-23T05:45:34.751Z,14.27
2019-04-23T05:53:11.422Z,10.97
2019-04-23T05:58:14.586Z,7.30
2019-04-23T06:03:12.052Z,9.97
2019-04-23T06:08:12.023Z,8.00
2019-04-23T06:10:40.757Z,9.87
2019-04-23T06:13:12.008Z,9.23
2019-04-23T06:15:49.243Z,9.60
2019-04-23T06:18:18.360Z,8.57
2019-04-23T06:20:50.306Z,10.67
2019-04-23T06:23:16.426Z,8.87
2019-04-23T06:26:07.999Z,11.03
2019-04-23T06:28:19.217Z,20.83
2019-04-23T06:33:20.965Z,8.10
2019-04-23T06:35:48.775Z,8.60
2019-04-23T06:40:41.889Z,9.57
2019-04-23T06:43:34.963Z,7.40
2019-04-23T06:46:01.338Z,10.93
2019-04-23T06:51:07.951Z,15.63
2019-04-23T06:53:30.669Z,9.17
2019-04-23T06:56:06.814Z,9.93
2019-04-23T06:58:32.700Z,9.27
2019-04-23T07:01:02.059Z,8.67
2019-04-23T07:03:38.804Z,12.67
2019-04-23T07:06:25.011Z,12.40
2019-04-23T07:16:12.817Z,9.70
2019-04-23T07:18:41.234Z,10.47
2019-04-23T07:23:48.361Z,8.57
2019-04-23T07:26:26.104Z,9.90
2019-04-23T07:28:49.883Z,14.40
2019-04-23T07:33:52.949Z,10.40
2019-04-23T07:36:17.180Z,12.83
2019-04-23T07:39:01.613Z,8.20
2019-04-23T07:44:38.396Z,11.67
2019-04-23T07:47:05.346Z,10.23
2019-04-23T07:49:15.177Z,8.03
2019-04-23T07:52:01.166Z,8.13
2019-04-23T07:54:25.312Z,13.03
2019-04-23T07:56:57.883Z,12.27
2019-04-23T07:59:24.901Z,11.63
2019-04-23T08:01:51.186Z,10.43
2019-04-23T08:04:29.561Z,13.43
2019-04-23T08:06:56.049Z,12.53
2019-04-23T08:09:24.633Z,8.20
2019-04-23T08:11:48.636Z,11.40
2019-04-23T08:14:13.666Z,9.80
2019-04-23T08:16:50.011Z,8.60
2019-04-23T08:19:25.657Z,9.70
2019-04-23T08:21:58.311Z,11.67
2019-04-23T08:24:35.884Z,10.93
2019-04-23T08:26:59.618Z,8.17
2019-04-23T08:32:07.475Z,9.17
2019-04-23T08:39:41.574Z,11.97
2019-04-23T08:42:28.452Z,12.83
2019-04-23T08:57:14.362Z,9.90
2019-04-23T08:59:48.692Z,12.57
2019-04-23T09:04:50.267Z,10.17
2019-04-23T09:09:51.015Z,14.33
2019-04-23T09:14:44.987Z,17.77
2019-04-23T09:17:24.678Z,14.00
2019-04-23T09:20:07.112Z,12.23
2019-04-23T09:22:20.835Z,11.07
2019-04-23T09:24:47.247Z,9.27
2019-04-23T09:27:23.449Z,11.33
2019-04-23T09:29:52.914Z,12.33
2019-04-23T09:35:08.529Z,11.07
2019-04-23T09:37:49.432Z,13.73
2019-04-23T09:40:32.125Z,12.70
2019-04-23T09:53:11.568Z,14.30
2019-04-23T09:55:35.905Z,13.10
2019-04-23T09:58:03.152Z,14.03
2019-04-23T10:00:40.727Z,13.27
2019-04-23T10:02:53.358Z,14.63
2019-04-23T10:05:22.470Z,9.57
2019-04-23T10:07:51.978Z,9.73
2019-04-23T10:10:12.157Z,12.20
2019-04-23T10:12:42.066Z,9.80
2019-04-23T10:15:18.756Z,7.03
2019-04-23T10:17:42.300Z,10.43
2019-04-23T10:20:11.122Z,11.37
2019-04-23T10:22:39.654Z,10.87
2019-04-23T10:25:08.902Z,14.00
2019-04-23T10:27:39.043Z,11.33
2019-04-23T10:30:08.198Z,14.83
2019-04-23T10:32:37.780Z,10.53
2019-04-23T10:35:20.814Z,13.03
2019-04-23T10:37:50.338Z,9.57
2019-04-23T10:40:18.780Z,10.57
2019-04-23T10:42:45.640Z,10.20
2019-04-23T10:45:30.375Z,7.57
2019-04-23T10:48:28.956Z,15.20
2019-04-23T10:51:01.834Z,12.70
2019-04-23T10:53:30.042Z,12.27
2019-04-23T10:56:00.651Z,15.13
2019-04-23T10:58:31.849Z,15.30
2019-04-23T11:01:01.578Z,23.57
2019-04-23T11:08:31.243Z,9.87
2019-04-23T11:11:03.100Z,17.80
2019-04-23T11:18:48.757Z,15.87
2019-04-23T11:21:13.575Z,17.60
2019-04-23T11:23:34.548Z,18.57
2019-04-23T11:26:06.804Z,16.13
2019-04-23T11:28:41.642Z,11.77
2019-04-23T11:33:41.542Z,16.37
2019-04-23T11:36:43.720Z,16.43
2019-04-23T11:37:58.722Z,18.97
2019-04-23T11:41:11.699Z,16.30
2019-04-23T11:43:37.731Z,16.13
2019-04-23T11:46:35.855Z,12.53
2019-04-23T11:48:51.462Z,16.43
2019-04-23T11:53:56.155Z,13.17
2019-04-23T11:56:22.441Z,16.93
2019-04-23T11:58:57.740Z,13.83
2019-04-23T12:04:04.996Z,11.47
2019-04-23T12:06:42.026Z,18.10
2019-04-23T12:09:33.783Z,11.87
2019-04-23T12:11:59.554Z,16.07
2019-04-23T12:14:32.770Z,11.57
2019-04-23T12:22:01.481Z,13.90
2019-04-23T12:24:42.097Z,14.17
2019-04-23T12:27:00.871Z,14.77
2019-04-23T12:29:34.625Z,15.07
2019-04-23T12:32:27.742Z,13.33
2019-04-23T12:34:52.817Z,19.90
2019-04-23T12:37:22.684Z,18.80
2019-04-23T12:39:49.445Z,14.30
2019-04-23T12:42:34.350Z,11.57
2019-04-23T12:44:45.763Z,13.20
2019-04-23T12:47:25.568Z,15.67
2019-04-23T12:52:17.641Z,20.43
2019-04-23T12:55:08.541Z,13.83
2019-04-23T12:57:17.476Z,20.60
2019-04-23T12:59:44.423Z,14.80
2019-04-23T13:02:25.291Z,14.43
2019-04-23T13:04:49.070Z,12.67
2019-04-23T13:07:20.456Z,12.77
2019-04-23T13:09:53.615Z,15.67
2019-04-23T13:12:29.308Z,12.80
2019-04-23T13:14:51.032Z,9.10
2019-04-23T13:22:24.271Z,16.43
2019-04-23T13:24:54.352Z,13.37
2019-04-23T13:27:29.007Z,12.97
2019-04-23T13:30:00.320Z,13.83
2019-04-23T13:32:29.266Z,20.10
2019-04-23T13:37:37.611Z,13.43
2019-04-23T13:40:00.238Z,14.90
2019-04-23T13:42:40.789Z,14.33
2019-04-23T13:44:57.042Z,13.30
2019-04-23T13:47:41.431Z,14.43
2019-04-23T13:50:01.381Z,11.30
2019-04-23T13:52:57.539Z,16.60
2019-04-23T13:57:58.587Z,19.33
2019-04-23T13:59:56.154Z,13.13
2019-04-23T14:05:06.379Z,19.80
2019-04-23T14:07:41.843Z,20.40
2019-04-23T14:10:13.682Z,14.53
2019-04-23T14:12:41.642Z,12.00
2019-04-23T14:17:46.686Z,16.70
2019-04-23T14:20:15.302Z,13.23
2019-04-23T14:28:05.605Z,13.17
2019-04-23T14:30:30.031Z,10.40
2019-04-23T14:32:34.741Z,14.53
2019-04-23T14:35:18.356Z,14.37
2019-04-23T14:37:52.825Z,10.87
2019-04-23T14:40:22.118Z,10.13
2019-04-23T14:43:01.806Z,13.07
2019-04-23T14:45:35.843Z,11.47
2019-04-23T14:50:32.178Z,19.87
2019-04-23T14:52:59.635Z,13.57
2019-04-23T14:58:07.930Z,13.83
2019-04-23T15:00:25.620Z,14.43
2019-04-23T15:03:04.552Z,15.07
2019-04-23T15:05:27.632Z,12.00
2019-04-23T15:08:00.020Z,13.23
2019-04-23T15:10:26.470Z,14.10
2019-04-23T15:15:25.172Z,13.60
2019-04-23T15:17:55.693Z,11.70
2019-04-23T15:20:32.486Z,11.37
2019-04-23T15:23:13.888Z,14.33
2019-04-23T15:25:32.179Z,13.90
2019-04-23T15:30:20.822Z,15.87
2019-04-23T15:35:53.361Z,15.33
2019-04-23T15:40:29.511Z,11.10
2019-04-23T15:43:02.859Z,15.83
2019-04-23T15:45:28.538Z,16.47
2019-04-23T15:48:03.332Z,13.10
2019-04-23T15:50:28.445Z,11.83
2019-04-23T15:52:56.564Z,18.97
2019-04-23T15:55:27.368Z,16.57
2019-04-23T15:58:09.025Z,10.10
2019-04-23T16:00:27.624Z,18.50
2019-04-23T16:02:31.486Z,10.50
2019-04-23T16:05:00.145Z,11.70
2019-04-23T16:07:44.241Z,13.00
2019-04-23T16:13:02.299Z,13.73
2019-04-23T16:15:40.360Z,12.07
2019-04-23T16:18:03.922Z,12.37
2019-04-23T16:22:52.247Z,12.87
2019-04-23T16:25:21.730Z,7.17
2019-04-23T16:28:04.252Z,9.40
2019-04-23T16:38:20.592Z,10.60
2019-04-23T16:40:39.469Z,8.03
2019-04-23T16:43:10.118Z,11.20
2019-04-23T16:45:41.478Z,8.03
2019-04-23T16:48:17.137Z,11.63
2019-04-23T16:50:57.464Z,10.57
2019-04-23T16:55:37.942Z,16.50
2019-04-23T16:58:15.611Z,17.87
2019-04-23T17:03:19.330Z,15.07
2019-04-23T17:05:42.286Z,17.77
2019-04-23T17:08:35.449Z,11.93
2019-04-23T17:10:46.729Z,15.70
2019-04-23T17:13:25.605Z,13.53
2019-04-23T17:16:15.276Z,15.87
2019-04-23T17:18:31.886Z,15.37
2019-04-23T17:20:57.976Z,18.33
2019-04-23T17:23:50.107Z,14.13
2019-04-23T17:26:04.093Z,25.80
2019-04-23T17:28:28.175Z,11.67
2019-04-23T17:31:24.633Z,22.83
2019-04-23T17:33:34.685Z,18.53
2019-04-23T17:36:25.861Z,9.50
2019-04-23T17:38:56.899Z,13.60
2019-04-23T17:41:33.136Z,21.10
2019-04-23T17:46:26.786Z,17.03
2019-04-23T17:49:01.610Z,10.27
2019-04-23T17:51:28.109Z,12.07
2019-04-23T17:54:06.942Z,16.63
2019-04-23T17:56:39.301Z,12.37
2019-04-23T18:02:14.674Z,14.23
2019-04-23T18:06:53.976Z,7.77
2019-04-23T18:11:40.131Z,11.20
2019-04-23T18:14:02.570Z,11.87
2019-04-23T18:16:40.784Z,14.10
2019-04-23T18:19:10.006Z,10.30
2019-04-23T18:21:44.500Z,13.33
2019-04-23T18:24:27.652Z,14.27
2019-04-23T18:29:41.083Z,14.97
2019-04-23T18:32:13.001Z,13.37
2019-04-23T18:35:03.508Z,9.80
2019-04-23T18:37:17.866Z,14.67
2019-04-23T18:39:54.596Z,12.27
2019-04-23T18:47:25.232Z,11.23
2019-04-23T18:49:48.046Z,15.77
2019-04-23T18:52:30.609Z,16.00
2019-04-23T18:55:09.102Z,11.50
2019-04-23T18:57:13.239Z,15.07
2019-04-23T18:59:50.743Z,16.30
2019-04-23T19:02:51.824Z,10.80
2019-04-23T19:05:15.392Z,15.40
2019-04-23T19:08:10.679Z,13.63
2019-04-23T19:10:31.738Z,10.23
2019-04-23T19:13:07.718Z,10.07
2019-04-23T19:15:38.119Z,11.80
2019-04-23T19:18:00.389Z,15.70
2019-04-23T19:20:51.797Z,15.87
2019-04-23T19:23:25.674Z,13.27
2019-04-23T19:25:38.765Z,13.70
2019-04-23T19:28:26.722Z,19.63
2019-04-23T19:30:46.134Z,14.63
2019-04-23T19:38:11.133Z,24.83
2019-04-23T19:43:12.185Z,19.43
2019-04-23T19:45:49.748Z,18.40
2019-04-23T19:48:19.447Z,20.80
2019-04-23T19:50:54.256Z,21.23
2019-04-23T19:55:57.122Z,13.57
2019-04-23T19:58:25.375Z,15.40
2019-04-23T20:01:03.766Z,18.53
2019-04-23T20:03:28.280Z,14.37
2019-04-23T20:05:53.870Z,14.77
2019-04-23T20:08:22.480Z,17.27
2019-04-23T20:10:47.689Z,17.67
2019-04-23T20:13:21.753Z,16.40
2019-04-23T20:16:05.548Z,15.40
2019-04-23T20:18:29.408Z,14.00
2019-04-23T20:20:49.740Z,14.63
2019-04-23T20:23:25.985Z,12.93
2019-04-23T20:32:06.194Z,13.77
2019-04-23T20:32:28.708Z,14.73
2019-04-23T20:36:05.023Z,14.70
2019-04-23T20:38:48.376Z,18.67
2019-04-23T20:41:14.822Z,14.30
2019-04-23T20:43:42.601Z,12.97
2019-04-23T20:48:41.273Z,17.67
2019-04-23T20:50:56.414Z,12.23
2019-04-23T20:53:43.338Z,16.03
2019-04-23T20:56:07.239Z,13.83
2019-04-23T20:58:54.921Z,16.13
2019-04-23T21:01:33.211Z,14.80
2019-04-23T21:03:56.952Z,12.47
2019-04-23T21:09:17.015Z,11.63
2019-04-23T21:11:24.982Z,9.83
2019-04-23T21:16:34.349Z,14.83
2019-04-23T21:19:10.574Z,12.07
2019-04-23T21:21:27.978Z,16.23
2019-04-23T21:23:52.583Z,14.07
2019-04-23T21:26:28.204Z,14.33
2019-04-23T21:28:54.147Z,15.83
2019-04-23T21:31:47.733Z,11.40
2019-04-23T21:34:05.961Z,11.33
2019-04-23T21:36:40.169Z,17.17
2019-04-23T21:39:26.913Z,12.20
2019-04-23T21:41:58.051Z,13.93
2019-04-23T21:47:21.833Z,14.43
2019-04-23T21:52:20.849Z,16.53
2019-04-23T21:54:51.614Z,13.90
2019-04-23T21:57:27.717Z,10.50
2019-04-23T21:59:52.935Z,11.70
2019-04-23T22:02:23.508Z,14.07
2019-04-23T22:04:52.727Z,14.70
2019-04-23T22:07:16.761Z,11.77
2019-04-23T22:09:55.532Z,18.30
2019-04-23T22:12:22.894Z,11.60
2019-04-23T22:22:16.313Z,9.50
2019-04-23T22:24:53.031Z,12.77
2019-04-23T22:27:18.719Z,18.50
2019-04-23T22:29:49.242Z,16.03
2019-04-23T22:32:23.663Z,13.63
2019-04-23T22:34:55.975Z,10.37
2019-04-23T22:37:23.521Z,12.87
2019-04-23T22:39:52.509Z,14.20
2019-04-23T22:42:44.789Z,12.47
2019-04-23T22:45:10.771Z,13.60
2019-04-23T22:47:25.180Z,14.70
2019-04-23T22:50:02.258Z,12.77
2019-04-23T22:57:32.784Z,14.00
2019-04-23T23:00:07.963Z,17.37
2019-04-23T23:02:44.646Z,15.63
2019-04-23T23:07:49.639Z,11.17
2019-04-23T23:10:20.110Z,11.10
2019-04-23T23:12:59.986Z,11.20
2019-04-23T23:15:10.251Z,11.87
2019-04-23T23:17:45.555Z,14.17
2019-04-23T23:20:15.605Z,12.10
2019-04-23T23:25:15.202Z,11.60
2019-04-23T23:27:39.701Z,16.73
2019-04-23T23:32:44.615Z,10.40
2019-04-23T23:37:34.542Z,9.90
2019-04-23T23:42:43.326Z,10.77
2019-04-23T23:47:37.905Z,10.03
2019-04-23T23:50:25.137Z,12.20
2019-04-23T23:52:48.782Z,15.40
2019-04-23T23:57:41.754Z,12.57
